Auburn, Georgia
Current Conditions -  °F | °C
As of 8:45 AM on Saturday 20 Dec 2014 (Local Time) from KLZU Reporting Station
Haze Haze  
Wind Chill: 41°   Ceiling: 3700
Heat Index: 45°   Visibility: 5mi
Dew Point: 37°   Wind: 6mph
Humidity: 76%   Direction: 30°NNE
Pressure: 30.19"   Gusts: NA
Location:  34.01°N, 83.83°W
Report Text: KLZU 201345Z 03005KT 5SM BR SCT025 OVC037 07/03 A3019 RMK ATIS S RWY 7 JW
Loading
Personal Weather Stations






























Interactive Weather Map New forecast layout! Learn more

10-Day Weather Forecast

Advertisements
Track Severe Weather on mobile